Harrison, Arkansas
Current Conditions -  °F | °C
As of 1:53 PM on Monday 22 Dec 2014 (Local Time) from KHRO Reporting Station
Overcast Overcast  
Wind Chill: 44°   Ceiling: 600
Heat Index: 48°   Visibility: 7mi
Dew Point: 48°   Wind: 9mph
Humidity: 100%   Direction: 150°SSE
Pressure: 29.52"   Gusts: NA
Location:  36.23°N, 93.11°W
Report Text: KHRO 221953Z AUTO 15008KT 7SM BKN006 OVC016 09/09 A2952 RMK AO2 CIG 004V008 SLP996 T00890089
Loading
Personal Weather Stations






























Interactive Weather Map New forecast layout! Learn more

10-Day Weather Forecast

Advertisements
Track Severe Weather on mobile